createdAt,value
2018-07-21T00:00:11.538Z,22.50
2018-07-21T00:02:40.295Z,22.50
2018-07-21T00:05:08.660Z,22.60
2018-07-21T00:07:37.115Z,22.40
2018-07-21T00:10:05.628Z,22.50
2018-07-21T00:12:34.077Z,22.50
2018-07-21T00:15:02.492Z,22.40
2018-07-21T00:17:30.874Z,22.30
2018-07-21T00:19:59.309Z,22.30
2018-07-21T00:22:27.702Z,22.30
2018-07-21T00:24:56.047Z,22.20
2018-07-21T00:27:24.462Z,22.30
2018-07-21T00:29:52.837Z,22.10
2018-07-21T00:32:21.308Z,22.10
2018-07-21T00:34:49.713Z,22.20
2018-07-21T00:37:18.305Z,22.30
2018-07-21T00:39:47.189Z,22.20
2018-07-21T00:42:15.599Z,22.10
2018-07-21T00:44:43.981Z,22.10
2018-07-21T00:47:12.334Z,22.20
2018-07-21T00:49:40.764Z,22.10
2018-07-21T00:52:09.154Z,22.20
2018-07-21T00:54:37.627Z,22.20
2018-07-21T00:57:06.053Z,22.20
2018-07-21T00:59:34.399Z,22.20
2018-07-21T01:02:03.569Z,22.30
2018-07-21T01:04:33.189Z,22.20
2018-07-21T01:07:01.578Z,22.10
2018-07-21T01:09:29.991Z,22.00
2018-07-21T01:11:58.410Z,22.00
2018-07-21T01:14:26.839Z,21.90
2018-07-21T01:16:55.210Z,22.00
2018-07-21T01:19:23.598Z,22.00
2018-07-21T01:21:52.045Z,22.00
2018-07-21T01:24:20.395Z,22.00
2018-07-21T01:26:48.804Z,22.00
2018-07-21T01:29:17.801Z,22.10
2018-07-21T01:31:46.190Z,22.00
2018-07-21T01:36:42.610Z,22.00
2018-07-21T01:39:11.916Z,22.10
2018-07-21T01:41:40.835Z,22.10
2018-07-21T01:44:09.149Z,22.10
2018-07-21T01:46:37.618Z,22.10
2018-07-21T01:50:35.439Z,22.00
2018-07-21T01:53:03.804Z,22.00
2018-07-21T01:55:32.185Z,21.90
2018-07-21T01:58:00.566Z,21.90
2018-07-21T02:00:28.912Z,21.90
2018-07-21T02:02:57.518Z,21.80
2018-07-21T02:05:25.868Z,21.80
2018-07-21T02:07:54.772Z,21.90
2018-07-21T02:10:23.748Z,21.80
2018-07-21T02:12:52.170Z,21.80
2018-07-21T02:15:20.681Z,21.70
2018-07-21T02:17:49.263Z,21.80
2018-07-21T02:20:17.653Z,21.60
2018-07-21T02:22:46.549Z,21.70
2018-07-21T02:25:14.997Z,21.60
2018-07-21T02:27:43.674Z,21.60
2018-07-21T02:30:12.050Z,21.70
2018-07-21T02:32:40.880Z,21.70
2018-07-21T02:35:09.868Z,21.60
2018-07-21T02:37:38.262Z,21.50
2018-07-21T02:40:06.729Z,21.40
2018-07-21T02:42:35.106Z,21.30
2018-07-21T02:45:03.539Z,21.30
2018-07-21T02:47:31.960Z,21.50
2018-07-21T02:50:00.776Z,21.40
2018-07-21T02:52:29.432Z,21.50
2018-07-21T02:54:57.853Z,21.40
2018-07-21T02:57:26.363Z,21.40
2018-07-21T02:59:54.745Z,21.40
2018-07-21T03:02:23.077Z,21.40
2018-07-21T03:04:51.506Z,21.40
2018-07-21T03:07:19.948Z,21.40
2018-07-21T03:09:48.673Z,21.40
2018-07-21T03:12:17.265Z,21.30
2018-07-21T03:14:45.749Z,21.40
2018-07-21T03:17:14.096Z,21.30
2018-07-21T03:19:42.506Z,21.30
2018-07-21T03:22:10.842Z,21.20
2018-07-21T03:24:39.185Z,21.10
2018-07-21T03:27:07.623Z,21.20
2018-07-21T03:29:36.033Z,21.10
2018-07-21T03:32:04.435Z,21.20
2018-07-21T03:34:32.798Z,21.20
2018-07-21T03:37:01.452Z,21.20
2018-07-21T03:39:29.806Z,21.10
2018-07-21T03:44:26.263Z,21.20
2018-07-21T03:49:22.755Z,21.20
2018-07-21T03:51:51.097Z,21.00
2018-07-21T03:54:19.634Z,20.90
2018-07-21T03:56:47.992Z,21.00
2018-07-21T03:59:16.310Z,21.00
2018-07-21T04:01:44.704Z,21.00
2018-07-21T04:04:13.085Z,21.00
2018-07-21T04:06:41.477Z,21.00
2018-07-21T04:09:11.012Z,21.00
2018-07-21T04:11:39.485Z,21.00
2018-07-21T04:14:08.265Z,20.90
2018-07-21T04:16:36.837Z,20.90
2018-07-21T04:19:05.284Z,20.80
2018-07-21T04:21:33.602Z,20.80
2018-07-21T04:24:02.042Z,20.80
2018-07-21T04:26:30.598Z,20.90
2018-07-21T04:28:59.100Z,20.80
2018-07-21T04:31:27.651Z,20.70
2018-07-21T04:33:56.375Z,20.70
2018-07-21T04:36:24.959Z,20.80
2018-07-21T04:38:53.612Z,20.80
2018-07-21T04:41:22.047Z,20.70
2018-07-21T04:43:50.440Z,20.80
2018-07-21T04:46:19.010Z,20.80
2018-07-21T04:48:47.732Z,20.80
2018-07-21T04:51:16.169Z,20.80
2018-07-21T04:53:45.120Z,20.90
2018-07-21T04:56:13.508Z,20.90
2018-07-21T04:58:41.965Z,20.80
2018-07-21T05:01:10.308Z,20.80
2018-07-21T05:03:38.975Z,20.80
2018-07-21T05:06:07.711Z,20.70
2018-07-21T05:08:36.089Z,20.80
2018-07-21T05:13:33.245Z,20.80
2018-07-21T05:16:01.592Z,20.80
2018-07-21T05:18:29.932Z,20.60
2018-07-21T05:20:58.664Z,20.50
2018-07-21T05:23:27.100Z,20.60
2018-07-21T05:25:55.451Z,20.60
2018-07-21T05:28:24.178Z,20.60
2018-07-21T05:30:52.497Z,20.60
2018-07-21T05:33:20.891Z,20.70
2018-07-21T05:35:49.255Z,20.80
2018-07-21T05:38:17.576Z,20.80
2018-07-21T05:40:45.982Z,20.90
2018-07-21T05:43:14.358Z,20.60
2018-07-21T05:45:42.849Z,20.80
2018-07-21T05:48:11.273Z,20.70
2018-07-21T05:50:39.684Z,20.80
2018-07-21T05:53:08.092Z,21.00
2018-07-21T05:55:36.463Z,21.10
2018-07-21T05:58:05.077Z,21.00
2018-07-21T06:00:33.480Z,21.00
2018-07-21T06:03:01.961Z,21.10
2018-07-21T06:05:30.324Z,21.20
2018-07-21T06:07:58.704Z,21.00
2018-07-21T06:10:27.155Z,21.10
2018-07-21T06:12:55.501Z,21.10
2018-07-21T06:15:23.911Z,21.20
2018-07-21T06:17:52.642Z,21.30
2018-07-21T06:20:20.997Z,21.20
2018-07-21T06:22:49.309Z,21.30
2018-07-21T06:25:17.713Z,21.50
2018-07-21T06:27:46.010Z,21.50
2018-07-21T06:30:14.391Z,21.60
2018-07-21T06:32:42.814Z,21.70
2018-07-21T06:35:11.213Z,21.70
2018-07-21T06:37:39.605Z,21.70
2018-07-21T06:40:07.984Z,21.80
2018-07-21T06:45:04.523Z,21.90
2018-07-21T06:47:32.909Z,21.90
2018-07-21T06:50:02.004Z,21.70
2018-07-21T06:52:30.359Z,21.70
2018-07-21T06:54:59.085Z,21.80
2018-07-21T06:57:27.478Z,21.90
2018-07-21T06:59:56.635Z,22.10
2018-07-21T07:02:25.015Z,22.20
2018-07-21T07:04:53.317Z,21.90
2018-07-21T07:07:21.961Z,22.10
2018-07-21T07:09:50.345Z,22.10
2018-07-21T07:12:18.733Z,22.20
2018-07-21T07:17:15.115Z,22.70
2018-07-21T07:19:43.489Z,22.70
2018-07-21T07:22:11.894Z,22.90
2018-07-21T07:24:40.331Z,23.00
2018-07-21T07:27:08.725Z,23.10
2018-07-21T07:29:37.107Z,23.30
2018-07-21T07:32:05.496Z,22.90
2018-07-21T07:34:33.880Z,23.30
2018-07-21T07:37:02.248Z,23.40
2018-07-21T07:41:59.022Z,23.90
2018-07-21T07:44:27.524Z,23.80
2018-07-21T07:46:56.315Z,23.90
2018-07-21T07:49:24.702Z,23.90
2018-07-21T07:51:53.141Z,23.90
2018-07-21T07:54:21.501Z,24.00
2018-07-21T07:56:50.565Z,23.80
2018-07-21T07:59:19.034Z,24.10
2018-07-21T08:01:47.458Z,24.00
2018-07-21T08:04:15.866Z,23.80
2018-07-21T08:06:44.245Z,23.90
2018-07-21T08:09:13.462Z,24.00
2018-07-21T08:11:42.541Z,24.20
2018-07-21T08:14:11.103Z,24.40
2018-07-21T08:16:39.446Z,24.70
2018-07-21T08:21:36.989Z,25.00
2018-07-21T08:24:05.374Z,24.90
2018-07-21T08:26:34.137Z,25.20
2018-07-21T08:29:02.504Z,25.30
2018-07-21T08:31:30.920Z,25.20
2018-07-21T08:33:59.445Z,25.00
2018-07-21T08:36:27.823Z,25.00
2018-07-21T08:38:56.215Z,25.30
2018-07-21T08:41:24.620Z,25.40
2018-07-21T08:43:53.369Z,25.60
2018-07-21T08:46:21.810Z,26.20
2018-07-21T08:48:50.245Z,25.90
2018-07-21T08:51:18.758Z,25.80
2018-07-21T08:56:15.435Z,26.20
2018-07-21T08:58:44.136Z,26.20
2018-07-21T09:01:12.504Z,26.00
2018-07-21T09:03:40.953Z,26.30
2018-07-21T09:06:09.456Z,26.00
2018-07-21T09:11:06.465Z,26.20
2018-07-21T09:13:34.883Z,26.40
2018-07-21T09:16:03.287Z,26.20
2018-07-21T09:18:31.638Z,27.10
2018-07-21T09:21:00.062Z,27.70
2018-07-21T09:23:28.508Z,28.00
2018-07-21T09:25:56.951Z,28.50
2018-07-21T09:28:26.064Z,28.50
2018-07-21T09:30:54.482Z,29.50
2018-07-21T09:33:22.901Z,30.10
2018-07-21T09:35:51.291Z,30.30
2018-07-21T09:40:47.782Z,29.20
2018-07-21T09:43:16.186Z,28.90
2018-07-21T09:45:44.580Z,29.00
2018-07-21T09:48:13.208Z,29.20
2018-07-21T09:50:41.642Z,28.80
2018-07-21T09:53:10.123Z,29.60
2018-07-21T09:55:39.608Z,30.00
2018-07-21T09:58:08.069Z,29.70
2018-07-21T10:00:41.901Z,29.50
2018-07-21T10:03:10.640Z,30.30
2018-07-21T10:05:39.218Z,29.90
2018-07-21T10:08:07.910Z,30.40
2018-07-21T10:10:36.652Z,30.00
2018-07-21T10:13:05.083Z,29.40
2018-07-21T10:15:33.837Z,29.40
2018-07-21T10:18:02.208Z,29.50
2018-07-21T10:20:30.898Z,29.90
2018-07-21T10:22:59.297Z,30.00
2018-07-21T10:25:32.988Z,30.00
2018-07-21T10:28:06.787Z,29.70
2018-07-21T10:30:35.208Z,29.10
2018-07-21T10:33:03.620Z,29.50
2018-07-21T10:35:32.052Z,30.20
2018-07-21T10:38:00.555Z,29.80
2018-07-21T10:40:29.033Z,29.70
2018-07-21T10:42:57.357Z,30.30
2018-07-21T10:45:25.708Z,30.40
2018-07-21T10:47:54.088Z,30.70
2018-07-21T10:50:22.484Z,30.30
2018-07-21T10:52:50.834Z,30.70
2018-07-21T10:55:19.259Z,29.60
2018-07-21T10:57:47.645Z,29.70
2018-07-21T11:00:16.080Z,30.50
2018-07-21T11:02:44.473Z,30.40
2018-07-21T11:05:12.913Z,30.60
2018-07-21T11:10:09.866Z,31.20
2018-07-21T11:12:38.257Z,30.40
2018-07-21T11:15:08.530Z,30.30
2018-07-21T11:17:37.010Z,30.20
2018-07-21T11:20:05.653Z,31.40
2018-07-21T11:22:34.378Z,30.60
2018-07-21T11:25:02.832Z,30.70
2018-07-21T11:27:31.224Z,30.20
2018-07-21T11:29:59.596Z,31.00
2018-07-21T11:32:27.999Z,31.40
2018-07-21T11:34:56.381Z,31.70
2018-07-21T11:37:24.811Z,31.20
2018-07-21T11:39:53.245Z,32.30
2018-07-21T11:42:21.669Z,33.00
2018-07-21T11:44:50.077Z,32.70
2018-07-21T11:47:18.490Z,32.90
2018-07-21T11:49:46.912Z,32.90
2018-07-21T11:52:15.321Z,32.50
2018-07-21T11:54:44.405Z,31.50
2018-07-21T11:57:12.776Z,32.10
2018-07-21T11:59:41.465Z,31.90
2018-07-21T12:02:09.837Z,31.50
2018-07-21T12:04:38.239Z,32.00
2018-07-21T12:07:06.600Z,32.60
2018-07-21T12:09:35.283Z,32.30
2018-07-21T12:12:03.700Z,32.50
2018-07-21T12:14:32.275Z,32.00
2018-07-21T12:17:00.863Z,32.60
2018-07-21T12:19:29.573Z,32.30
2018-07-21T12:21:58.388Z,31.10
2018-07-21T12:24:26.818Z,31.30
2018-07-21T12:26:55.264Z,32.00
2018-07-21T12:29:24.199Z,32.90
2018-07-21T12:31:52.522Z,32.30
2018-07-21T12:34:21.001Z,32.10
2018-07-21T12:36:49.400Z,32.70
2018-07-21T12:39:17.795Z,32.60
2018-07-21T12:41:46.135Z,32.80
2018-07-21T12:44:14.513Z,31.60
2018-07-21T12:46:42.893Z,31.50
2018-07-21T12:49:11.259Z,31.90
2018-07-21T12:51:39.675Z,32.40
2018-07-21T12:54:08.142Z,32.70
2018-07-21T12:56:36.941Z,32.20
2018-07-21T12:59:05.841Z,32.40
2018-07-21T13:01:34.301Z,32.70
2018-07-21T13:04:02.797Z,33.10
2018-07-21T13:06:31.217Z,33.60
2018-07-21T13:08:59.704Z,33.00
2018-07-21T13:11:28.413Z,31.90
2018-07-21T13:13:56.891Z,31.90
2018-07-21T13:16:25.237Z,32.50
2018-07-21T13:18:53.644Z,32.80
2018-07-21T13:21:21.983Z,32.60
2018-07-21T13:23:50.340Z,32.00
2018-07-21T13:26:18.720Z,31.90
2018-07-21T13:28:47.180Z,31.60
2018-07-21T13:31:15.501Z,31.20
2018-07-21T13:33:44.183Z,30.80
2018-07-21T13:36:12.925Z,30.40
2018-07-21T13:38:41.580Z,31.10
2018-07-21T13:41:10.009Z,31.20
2018-07-21T13:43:38.398Z,31.20
2018-07-21T13:46:06.769Z,31.20
2018-07-21T13:48:35.455Z,31.20
2018-07-21T13:51:03.834Z,31.30
2018-07-21T13:53:32.513Z,31.80
2018-07-21T13:56:00.905Z,31.90
2018-07-21T13:58:30.021Z,31.00
2018-07-21T14:00:58.368Z,30.60
2018-07-21T14:03:27.044Z,30.50
2018-07-21T14:08:23.994Z,29.70
2018-07-21T14:10:52.319Z,30.00
2018-07-21T14:13:20.941Z,30.20
2018-07-21T14:15:49.303Z,30.50
2018-07-21T14:18:17.690Z,30.30
2018-07-21T14:20:46.124Z,30.00
2018-07-21T14:23:14.516Z,30.20
2018-07-21T14:25:43.164Z,30.30
2018-07-21T14:28:11.611Z,30.50
2018-07-21T14:30:40.052Z,30.50
2018-07-21T14:33:08.427Z,30.30
2018-07-21T14:35:36.793Z,30.50
2018-07-21T14:38:05.332Z,30.40
2018-07-21T14:40:33.757Z,30.30
2018-07-21T14:43:02.464Z,30.00
2018-07-21T14:45:30.836Z,30.30
2018-07-21T14:47:59.196Z,30.30
2018-07-21T14:51:57.079Z,30.10
2018-07-21T14:54:25.570Z,30.10
2018-07-21T14:56:53.970Z,29.90
2018-07-21T14:59:22.440Z,29.70
2018-07-21T15:01:50.897Z,29.70
2018-07-21T15:04:19.313Z,29.80
2018-07-21T15:06:47.961Z,29.70
2018-07-21T15:09:16.295Z,29.80
2018-07-21T15:11:44.753Z,29.50
2018-07-21T15:14:14.048Z,29.40
2018-07-21T15:16:42.531Z,29.30
2018-07-21T15:19:10.838Z,29.20
2018-07-21T15:21:39.210Z,28.90
2018-07-21T15:24:07.980Z,29.00
2018-07-21T15:26:36.376Z,29.00
2018-07-21T15:29:04.797Z,29.10
2018-07-21T15:31:33.157Z,29.00
2018-07-21T15:34:01.617Z,29.00
2018-07-21T15:36:29.984Z,29.00
2018-07-21T15:39:00.119Z,29.10
2018-07-21T15:41:29.142Z,28.80
2018-07-21T15:43:57.572Z,28.70
2018-07-21T15:46:25.953Z,28.60
2018-07-21T15:48:54.349Z,28.50
2018-07-21T15:51:22.711Z,28.60
2018-07-21T15:53:51.340Z,28.60
2018-07-21T15:56:19.775Z,28.60
2018-07-21T15:58:48.517Z,28.70
2018-07-21T16:01:16.978Z,28.60
2018-07-21T16:03:45.368Z,28.70
2018-07-21T16:06:14.064Z,28.40
2018-07-21T16:08:42.611Z,28.40
2018-07-21T16:11:10.876Z,28.40
2018-07-21T16:13:39.239Z,28.50
2018-07-21T16:16:07.596Z,28.60
2018-07-21T16:18:36.196Z,28.50
2018-07-21T16:21:04.910Z,28.50
2018-07-21T16:23:33.342Z,28.50
2018-07-21T16:26:01.762Z,28.30
2018-07-21T16:28:30.154Z,28.20
2018-07-21T16:30:58.628Z,28.10
2018-07-21T16:33:27.105Z,28.10
2018-07-21T16:35:55.485Z,27.90
2018-07-21T16:38:23.855Z,27.90
2018-07-21T16:40:52.248Z,27.80
2018-07-21T16:43:20.668Z,27.80
2018-07-21T16:45:49.040Z,27.80
2018-07-21T16:50:45.561Z,27.60
2018-07-21T16:53:13.973Z,27.60
2018-07-21T16:55:42.394Z,27.50
2018-07-21T16:58:10.786Z,27.40
2018-07-21T17:00:39.228Z,27.40
2018-07-21T17:03:07.628Z,27.40
2018-07-21T17:05:36.409Z,27.20
2018-07-21T17:10:33.142Z,27.10
2018-07-21T17:13:01.691Z,27.10
2018-07-21T17:15:30.254Z,27.10
2018-07-21T17:17:59.022Z,27.20
2018-07-21T17:20:27.981Z,27.20
2018-07-21T17:22:56.454Z,27.20
2018-07-21T17:25:25.028Z,27.10
2018-07-21T17:27:53.425Z,26.80
2018-07-21T17:30:21.859Z,26.80
2018-07-21T17:32:50.261Z,26.60
2018-07-21T17:37:47.161Z,26.70
2018-07-21T17:40:15.546Z,26.40
2018-07-21T17:42:43.958Z,26.30
2018-07-21T17:45:12.376Z,26.30
2018-07-21T17:47:40.869Z,26.40
2018-07-21T17:50:09.371Z,26.50
2018-07-21T17:52:37.785Z,26.30
2018-07-21T17:55:06.319Z,26.10
2018-07-21T17:57:34.689Z,26.20
2018-07-21T18:00:03.122Z,26.30
2018-07-21T18:02:31.812Z,26.30
2018-07-21T18:05:00.233Z,26.10
2018-07-21T18:07:28.998Z,25.90
2018-07-21T18:09:57.372Z,25.90
2018-07-21T18:12:25.867Z,25.70
2018-07-21T18:14:54.256Z,25.60
2018-07-21T18:17:22.648Z,25.60
2018-07-21T18:19:51.042Z,25.70
2018-07-21T18:22:19.441Z,25.70
2018-07-21T18:24:47.780Z,25.40
2018-07-21T18:27:16.204Z,25.10
2018-07-21T18:29:44.978Z,25.20
2018-07-21T18:32:13.382Z,25.30
2018-07-21T18:34:41.792Z,25.30
2018-07-21T18:37:10.235Z,25.40
2018-07-21T18:39:38.627Z,25.30
2018-07-21T18:42:07.005Z,25.10
2018-07-21T18:44:35.420Z,25.20
2018-07-21T18:47:04.078Z,25.30
2018-07-21T18:49:32.447Z,25.10
2018-07-21T18:52:00.834Z,25.00
2018-07-21T18:54:29.993Z,25.00
2018-07-21T18:56:58.999Z,25.00
2018-07-21T18:59:27.433Z,25.00
2018-07-21T19:01:55.819Z,24.80
2018-07-21T19:04:24.546Z,24.90
2018-07-21T19:06:53.007Z,24.80
2018-07-21T19:09:21.796Z,24.70
2018-07-21T19:11:55.793Z,24.70
2018-07-21T19:14:24.308Z,24.70
2018-07-21T19:16:52.866Z,24.60
2018-07-21T19:19:21.539Z,24.50
2018-07-21T19:21:50.116Z,24.50
2018-07-21T19:24:18.755Z,24.60
2018-07-21T19:26:52.827Z,24.40
2018-07-21T19:29:21.607Z,24.40
2018-07-21T19:31:56.015Z,24.20
2018-07-21T19:34:24.357Z,24.30
2018-07-21T19:36:53.203Z,24.10
2018-07-21T19:41:55.675Z,24.00
2018-07-21T19:44:24.131Z,24.10
2018-07-21T19:46:52.820Z,23.80
2018-07-21T19:49:21.248Z,23.90
2018-07-21T19:51:49.660Z,23.80
2018-07-21T19:54:18.130Z,23.80
2018-07-21T19:56:46.551Z,23.80
2018-07-21T19:59:15.088Z,23.70
2018-07-21T20:01:43.431Z,23.60
2018-07-21T20:04:11.935Z,23.40
2018-07-21T20:06:41.245Z,23.20
2018-07-21T20:10:38.984Z,23.40
2018-07-21T20:13:07.948Z,23.40
2018-07-21T20:15:36.321Z,23.20
2018-07-21T20:18:04.898Z,23.30
2018-07-21T20:23:01.493Z,23.50
2018-07-21T20:25:30.156Z,23.20
2018-07-21T20:27:58.632Z,23.20
2018-07-21T20:30:27.161Z,23.20
2018-07-21T20:32:55.615Z,23.20
2018-07-21T20:35:24.010Z,23.30
2018-07-21T20:37:52.719Z,23.20
2018-07-21T20:40:21.428Z,23.10
2018-07-21T20:42:50.140Z,23.00
2018-07-21T20:45:18.939Z,23.00
2018-07-21T20:47:47.426Z,22.90
2018-07-21T20:50:15.899Z,22.80
2018-07-21T20:52:44.306Z,22.70
2018-07-21T20:55:12.687Z,22.70
2018-07-21T20:57:41.055Z,22.80
2018-07-21T21:00:09.868Z,22.70
2018-07-21T21:02:38.289Z,22.60
2018-07-21T21:05:07.696Z,22.70
2018-07-21T21:07:36.273Z,22.80
2018-07-21T21:10:04.747Z,22.80
2018-07-21T21:12:33.228Z,22.80
2018-07-21T21:15:01.615Z,22.70
2018-07-21T21:17:30.064Z,22.80
2018-07-21T21:19:58.412Z,22.70
2018-07-21T21:22:26.987Z,22.60
2018-07-21T21:24:55.707Z,22.40
2018-07-21T21:27:24.082Z,22.60
2018-07-21T21:29:52.589Z,22.60
2018-07-21T21:32:21.084Z,22.40
2018-07-21T21:34:49.423Z,22.40
2018-07-21T21:37:17.839Z,22.30
2018-07-21T21:39:46.335Z,22.30
2018-07-21T21:42:14.783Z,22.20
2018-07-21T21:44:43.280Z,22.10
2018-07-21T21:47:11.702Z,22.00
2018-07-21T21:49:40.146Z,22.00
2018-07-21T21:52:08.674Z,22.00
2018-07-21T21:54:37.108Z,22.00
2018-07-21T21:57:05.563Z,22.00
2018-07-21T21:59:33.969Z,22.00
2018-07-21T22:02:02.349Z,22.00
2018-07-21T22:04:30.860Z,22.00
2018-07-21T22:06:59.267Z,21.80
2018-07-21T22:09:27.738Z,21.70
2018-07-21T22:11:56.158Z,21.60
2018-07-21T22:14:24.612Z,21.70
2018-07-21T22:16:53.249Z,21.80
2018-07-21T22:19:21.573Z,21.70
2018-07-21T22:21:50.209Z,21.50
2018-07-21T22:24:18.678Z,21.40
2018-07-21T22:26:47.068Z,21.20
2018-07-21T22:29:15.469Z,21.10
2018-07-21T22:31:43.795Z,21.20
2018-07-21T22:34:12.420Z,21.10
2018-07-21T22:36:40.807Z,21.10
2018-07-21T22:39:10.566Z,21.20
2018-07-21T22:41:39.055Z,21.20
2018-07-21T22:44:07.498Z,21.10
2018-07-21T22:46:35.884Z,21.20
2018-07-21T22:49:04.669Z,21.10
2018-07-21T22:51:33.105Z,21.00
2018-07-21T22:54:01.452Z,21.00
2018-07-21T22:56:29.878Z,21.00
2018-07-21T22:58:58.287Z,21.00
2018-07-21T23:01:26.959Z,20.90
2018-07-21T23:03:55.400Z,20.90
2018-07-21T23:06:23.767Z,21.00
2018-07-21T23:08:52.237Z,21.00
2018-07-21T23:11:20.638Z,21.10
2018-07-21T23:13:49.062Z,21.10
2018-07-21T23:16:17.477Z,21.10
2018-07-21T23:18:45.844Z,21.20
2018-07-21T23:21:14.229Z,21.10
2018-07-21T23:23:42.613Z,21.10
2018-07-21T23:26:10.952Z,21.00
2018-07-21T23:28:39.992Z,21.10
2018-07-21T23:31:08.432Z,21.10
2018-07-21T23:33:36.843Z,20.90
2018-07-21T23:36:05.661Z,21.00
2018-07-21T23:38:34.016Z,21.10
2018-07-21T23:41:02.375Z,21.10
2018-07-21T23:43:30.820Z,21.00
2018-07-21T23:48:27.310Z,21.10
2018-07-21T23:50:56.030Z,21.00
2018-07-21T23:53:24.368Z,21.10
2018-07-21T23:55:52.953Z,21.10
2018-07-21T23:58:21.390Z,21.10
